Terminal Aerodrome Forecast
Issued by NWS Green Bay, WI

Home | Current Version | Previous Version | Graphics & Text | Print | Product List | Glossary On
Versions: 1 2 3 4 5 6 7 8 9 10 11 12 13 14 15 16 17 18 19 20 21 22 23 24 25 26 27 28 29 30
000
FTUS43 KGRB 190320 AAA
TAFGRB
TAF AMD
KGRB 190320Z 1903/1924 18010KT P6SM BKN120 WS018/21040KT
     FM191100 15003KT 5SM BR OVC050
     FM191400 07006KT 5SM -RA BR OVC030
     FM191600 04011G18KT 5SM -RAPL BR OVC013
     FM191800 04017G26KT 4SM -FZRAPL BR OVC007=

USA.gov is the U.S. government's official web portal to all federal, state and local government web resources and services.